createdAt,value
2019-02-11T00:01:04.153Z,100147.19
2019-02-11T00:02:11.554Z,100147.85
2019-02-11T00:03:16.756Z,100150.16
2019-02-11T00:04:22.196Z,100155.50
2019-02-11T00:05:26.955Z,100160.38
2019-02-11T00:06:32.116Z,100157.11
2019-02-11T00:07:37.599Z,100172.94
2019-02-11T00:08:42.572Z,100166.42
2019-02-11T00:09:47.226Z,100173.36
2019-02-11T00:10:52.550Z,100179.52
2019-02-11T00:11:57.305Z,100187.47
2019-02-11T00:13:10.169Z,100184.64
2019-02-11T00:14:09.749Z,100183.98
2019-02-11T00:15:14.709Z,100190.25
2019-02-11T00:16:19.289Z,100194.05
2019-02-11T00:17:23.891Z,100197.13
2019-02-11T00:18:29.146Z,100200.84
2019-02-11T00:19:33.842Z,100202.49
2019-02-11T00:20:38.790Z,100204.73
2019-02-11T00:21:44.660Z,100190.62
2019-02-11T00:22:50.138Z,100199.91
2019-02-11T00:23:55.117Z,100202.35
2019-02-11T00:25:00.057Z,100204.22
2019-02-11T00:26:04.995Z,100213.36
2019-02-11T00:27:10.147Z,100206.79
2019-02-11T00:28:15.359Z,100220.28
2019-02-11T00:29:20.253Z,100223.79
2019-02-11T00:30:25.723Z,100219.42
2019-02-11T00:31:31.024Z,100224.30
2019-02-11T00:32:36.187Z,100235.94
2019-02-11T00:33:41.421Z,100234.70
2019-02-11T00:34:46.194Z,100237.09
2019-02-11T00:35:51.439Z,100240.23
2019-02-11T00:36:56.987Z,100245.31
2019-02-11T00:38:01.709Z,100250.03
2019-02-11T00:39:07.554Z,100247.90
2019-02-11T00:40:12.440Z,100254.84
2019-02-11T00:41:17.456Z,100257.95
2019-02-11T00:42:22.466Z,100251.80
2019-02-11T00:43:27.682Z,100258.17
2019-02-11T00:44:32.752Z,100267.49
2019-02-11T00:45:37.894Z,100266.91
2019-02-11T00:46:43.077Z,100267.07
2019-02-11T00:47:48.311Z,100271.23
2019-02-11T00:48:53.509Z,100267.41
2019-02-11T00:49:58.537Z,100274.83
2019-02-11T00:51:03.523Z,100273.25
2019-02-11T00:52:09.009Z,100283.50
2019-02-11T00:53:14.074Z,100284.73
2019-02-11T00:54:18.932Z,100289.39
2019-02-11T00:55:24.300Z,100292.88
2019-02-11T00:56:29.577Z,100295.41
2019-02-11T00:57:34.937Z,100296.86
2019-02-11T00:58:40.571Z,100298.48
2019-02-11T00:59:45.801Z,100301.93
2019-02-11T01:00:51.056Z,100303.02
2019-02-11T01:01:56.314Z,100308.78
2019-02-11T01:03:01.535Z,100305.70
2019-02-11T01:04:07.077Z,100310.98
2019-02-11T01:05:12.054Z,100315.77
2019-02-11T01:06:17.046Z,100318.22
2019-02-11T01:07:22.245Z,100321.33
2019-02-11T01:08:28.164Z,100328.75
2019-02-11T01:09:33.410Z,100328.41
2019-02-11T01:10:38.357Z,100324.77
2019-02-11T01:11:43.400Z,100336.66
2019-02-11T01:12:48.419Z,100341.11
2019-02-11T01:13:53.658Z,100340.28
2019-02-11T01:14:58.915Z,100346.28
2019-02-11T01:16:04.178Z,100345.19
2019-02-11T01:17:09.115Z,100350.39
2019-02-11T01:18:14.331Z,100353.06
2019-02-11T01:19:19.221Z,100353.30
2019-02-11T01:20:24.186Z,100354.95
2019-02-11T01:21:29.423Z,100358.05
2019-02-11T01:22:34.334Z,100361.02
2019-02-11T01:23:39.491Z,100360.20
2019-02-11T01:24:44.221Z,100356.75
2019-02-11T01:25:49.981Z,100357.18
2019-02-11T01:26:54.860Z,100369.20
2019-02-11T01:27:59.812Z,100366.23
2019-02-11T01:29:05.217Z,100361.28
2019-02-11T01:30:12.200Z,100369.28
2019-02-11T01:31:16.976Z,100376.53
2019-02-11T01:32:22.173Z,100365.38
2019-02-11T01:33:27.425Z,100367.66
2019-02-11T01:34:32.295Z,100376.96
2019-02-11T01:35:37.326Z,100368.34
2019-02-11T01:36:42.942Z,100381.27
2019-02-11T01:37:47.964Z,100383.56
2019-02-11T01:38:53.210Z,100376.20
2019-02-11T01:39:59.110Z,100381.00
2019-02-11T01:41:04.082Z,100382.14
2019-02-11T01:42:08.774Z,100384.12
2019-02-11T01:43:13.646Z,100390.33
2019-02-11T01:44:18.629Z,100389.47
2019-02-11T01:45:23.425Z,100387.10
2019-02-11T01:46:28.965Z,100394.81
2019-02-11T01:47:34.486Z,100397.61
2019-02-11T01:48:39.227Z,100404.39
2019-02-11T01:49:44.408Z,100398.00
2019-02-11T01:50:49.909Z,100410.67
2019-02-11T01:51:55.139Z,100410.61
2019-02-11T01:53:00.665Z,100410.61
2019-02-11T01:54:05.086Z,100408.03
2019-02-11T01:55:10.626Z,100408.81
2019-02-11T01:56:15.876Z,100415.89
2019-02-11T01:57:21.136Z,100416.33
2019-02-11T01:58:26.367Z,100415.75
2019-02-11T01:59:31.348Z,100424.51
2019-02-11T02:00:36.694Z,100418.27
2019-02-11T02:01:41.579Z,100421.35
2019-02-11T02:02:47.092Z,100419.13
2019-02-11T02:03:52.420Z,100423.31
2019-02-11T02:04:57.987Z,100419.83
2019-02-11T02:06:03.141Z,100418.83
2019-02-11T02:07:08.782Z,100424.86
2019-02-11T02:08:14.480Z,100428.93
2019-02-11T02:09:19.444Z,100426.38
2019-02-11T02:10:24.615Z,100422.80
2019-02-11T02:11:29.576Z,100420.22
2019-02-11T02:12:34.780Z,100432.02
2019-02-11T02:13:44.811Z,100427.11
2019-02-11T02:14:47.019Z,100434.88
2019-02-11T02:15:51.956Z,100441.59
2019-02-11T02:16:57.173Z,100447.78
2019-02-11T02:18:02.383Z,100449.41
2019-02-11T02:19:07.462Z,100446.43
2019-02-11T02:20:13.739Z,100452.17
2019-02-11T02:21:18.926Z,100456.09
2019-02-11T02:22:23.365Z,100458.52
2019-02-11T02:23:28.898Z,100462.45
2019-02-11T02:24:34.136Z,100456.44
2019-02-11T02:25:39.304Z,100463.81
2019-02-11T02:26:44.548Z,100466.95
2019-02-11T02:27:49.986Z,100466.05
2019-02-11T02:28:55.518Z,100470.28
2019-02-11T02:30:01.026Z,100478.25
2019-02-11T02:31:05.687Z,100472.52
2019-02-11T02:32:10.938Z,100474.52
2019-02-11T02:33:16.176Z,100476.00
2019-02-11T02:34:21.694Z,100478.08
2019-02-11T02:35:27.122Z,100479.81
2019-02-11T02:36:32.594Z,100473.73
2019-02-11T02:37:37.517Z,100475.77
2019-02-11T02:38:42.285Z,100492.13
2019-02-11T02:39:47.823Z,100483.22
2019-02-11T02:40:52.813Z,100489.39
2019-02-11T02:41:57.692Z,100484.52
2019-02-11T02:43:03.159Z,100490.44
2019-02-11T02:44:08.675Z,100487.93
2019-02-11T02:45:13.814Z,100494.36
2019-02-11T02:46:19.827Z,100487.10
2019-02-11T02:47:25.129Z,100492.71
2019-02-11T02:48:30.086Z,100496.31
2019-02-11T02:49:34.676Z,100501.83
2019-02-11T02:50:39.570Z,100496.77
2019-02-11T02:51:44.949Z,100497.02
2019-02-11T02:52:49.924Z,100500.47
2019-02-11T02:53:54.869Z,100495.47
2019-02-11T02:55:00.119Z,100499.28
2019-02-11T02:56:05.511Z,100502.30
2019-02-11T02:57:10.230Z,100511.15
2019-02-11T02:58:15.779Z,100510.95
2019-02-11T02:59:20.762Z,100511.69
2019-02-11T03:00:25.982Z,100517.22
2019-02-11T03:01:30.737Z,100506.70
2019-02-11T03:02:35.697Z,100512.48
2019-02-11T03:03:40.956Z,100521.50
2019-02-11T03:04:45.622Z,100518.95
2019-02-11T03:05:52.873Z,100528.44
2019-02-11T03:06:57.651Z,100522.72
2019-02-11T03:08:02.624Z,100528.94
2019-02-11T03:09:07.877Z,100534.11
2019-02-11T03:10:12.946Z,100537.96
2019-02-11T03:11:18.953Z,100539.14
2019-02-11T03:12:24.261Z,100537.02
2019-02-11T03:13:29.863Z,100543.81
2019-02-11T03:14:35.025Z,100550.76
2019-02-11T03:15:40.701Z,100542.05
2019-02-11T03:16:46.017Z,100544.39
2019-02-11T03:17:51.792Z,100547.73
2019-02-11T03:18:56.472Z,100547.14
2019-02-11T03:20:01.425Z,100550.33
2019-02-11T03:21:06.402Z,100547.05
2019-02-11T03:22:11.647Z,100549.03
2019-02-11T03:23:17.204Z,100550.03
2019-02-11T03:24:22.628Z,100552.66
2019-02-11T03:25:28.360Z,100556.47
2019-02-11T03:26:33.255Z,100554.44
2019-02-11T03:27:38.372Z,100559.68
2019-02-11T03:28:43.805Z,100549.31
2019-02-11T03:29:48.919Z,100560.02
2019-02-11T03:30:54.245Z,100560.06
2019-02-11T03:32:00.102Z,100556.99
2019-02-11T03:33:04.976Z,100559.55
2019-02-11T03:34:10.610Z,100560.09
2019-02-11T03:35:16.231Z,100566.94
2019-02-11T03:36:21.268Z,100573.35
2019-02-11T03:37:26.577Z,100572.03
2019-02-11T03:38:31.450Z,100575.56
2019-02-11T03:39:36.491Z,100580.28
2019-02-11T03:40:41.621Z,100584.05
2019-02-11T03:41:46.726Z,100589.28
2019-02-11T03:42:51.239Z,100588.93
2019-02-11T03:43:57.633Z,100592.21
2019-02-11T03:45:02.723Z,100599.34
2019-02-11T03:46:07.702Z,100601.82
2019-02-11T03:47:12.159Z,100601.80
2019-02-11T03:48:17.854Z,100607.77
2019-02-11T03:49:23.199Z,100604.38
2019-02-11T03:50:28.419Z,100602.30
2019-02-11T03:51:33.512Z,100606.11
2019-02-11T03:52:38.525Z,100609.55
2019-02-11T03:53:43.575Z,100609.96
2019-02-11T03:54:48.591Z,100615.19
2019-02-11T03:55:53.312Z,100612.23
2019-02-11T03:56:58.300Z,100616.52
2019-02-11T03:58:03.017Z,100615.61
2019-02-11T03:59:07.647Z,100613.53
2019-02-11T04:00:12.858Z,100622.04
2019-02-11T04:01:17.882Z,100615.16
2019-02-11T04:02:22.727Z,100615.20
2019-02-11T04:03:27.985Z,100624.27
2019-02-11T04:04:32.667Z,100626.02
2019-02-11T04:05:37.912Z,100621.77
2019-02-11T04:06:43.539Z,100627.78
2019-02-11T04:07:48.703Z,100632.95
2019-02-11T04:08:53.690Z,100634.19
2019-02-11T04:09:58.643Z,100637.27
2019-02-11T04:11:03.650Z,100639.86
2019-02-11T04:12:08.627Z,100646.28
2019-02-11T04:13:13.597Z,100644.92
2019-02-11T04:14:24.631Z,100656.56
2019-02-11T04:15:25.919Z,100652.34
2019-02-11T04:16:30.890Z,100657.95
2019-02-11T04:17:36.315Z,100653.17
2019-02-11T04:18:40.866Z,100659.56
2019-02-11T04:19:46.085Z,100659.67
2019-02-11T04:20:51.254Z,100663.06
2019-02-11T04:22:09.607Z,100659.23
2019-02-11T04:23:14.561Z,100664.38
2019-02-11T04:24:19.278Z,100670.87
2019-02-11T04:25:24.038Z,100674.31
2019-02-11T04:26:29.265Z,100673.45
2019-02-11T04:27:33.893Z,100668.67
2019-02-11T04:28:39.139Z,100679.90
2019-02-11T04:29:44.473Z,100682.07
2019-02-11T04:30:49.612Z,100685.55
2019-02-11T04:31:54.071Z,100684.26
2019-02-11T04:32:59.332Z,100685.08
2019-02-11T04:34:04.301Z,100688.91
2019-02-11T04:35:09.880Z,100692.36
2019-02-11T04:36:15.393Z,100692.83
2019-02-11T04:37:20.620Z,100693.69
2019-02-11T04:38:25.785Z,100698.88
2019-02-11T04:39:30.486Z,100711.83
2019-02-11T04:40:35.424Z,100710.55
2019-02-11T04:41:40.686Z,100710.53
2019-02-11T04:42:46.375Z,100711.84
2019-02-11T04:43:51.233Z,100716.14
2019-02-11T04:44:56.223Z,100718.29
2019-02-11T04:46:01.485Z,100718.72
2019-02-11T04:47:06.205Z,100722.59
2019-02-11T04:48:11.158Z,100720.00
2019-02-11T04:49:16.387Z,100727.34
2019-02-11T04:50:21.342Z,100727.29
2019-02-11T04:51:26.262Z,100731.22
2019-02-11T04:52:31.613Z,100724.30
2019-02-11T04:53:37.103Z,100734.20
2019-02-11T04:54:43.489Z,100733.80
2019-02-11T04:55:48.203Z,100739.81
2019-02-11T04:56:53.384Z,100729.51
2019-02-11T04:57:58.271Z,100741.58
2019-02-11T04:59:03.437Z,100735.95
2019-02-11T05:00:09.199Z,100736.83
2019-02-11T05:01:14.178Z,100743.29
2019-02-11T05:02:19.322Z,100748.02
2019-02-11T05:03:24.286Z,100754.48
2019-02-11T05:04:29.312Z,100759.23
2019-02-11T05:05:34.620Z,100757.09
2019-02-11T05:06:40.833Z,100764.88
2019-02-11T05:07:46.215Z,100758.77
2019-02-11T05:08:51.367Z,100760.55
2019-02-11T05:09:56.611Z,100768.75
2019-02-11T05:11:01.853Z,100759.24
2019-02-11T05:12:07.076Z,100767.86
2019-02-11T05:13:12.228Z,100772.53
2019-02-11T05:14:17.729Z,100772.98
2019-02-11T05:15:23.272Z,100769.06
2019-02-11T05:16:27.938Z,100779.01
2019-02-11T05:17:32.574Z,100779.46
2019-02-11T05:18:37.721Z,100774.69
2019-02-11T05:19:43.414Z,100777.36
2019-02-11T05:20:48.987Z,100783.34
2019-02-11T05:21:54.275Z,100780.32
2019-02-11T05:22:59.447Z,100780.80
2019-02-11T05:24:04.329Z,100794.55
2019-02-11T05:25:09.274Z,100788.94
2019-02-11T05:26:14.441Z,100787.62
2019-02-11T05:27:19.135Z,100791.48
2019-02-11T05:28:23.862Z,100790.63
2019-02-11T05:29:29.289Z,100790.63
2019-02-11T05:30:34.780Z,100793.64
2019-02-11T05:31:39.658Z,100794.86
2019-02-11T05:32:44.903Z,100796.63
2019-02-11T05:33:49.854Z,100801.45
2019-02-11T05:34:54.805Z,100795.81
2019-02-11T05:35:59.223Z,100798.86
2019-02-11T05:37:04.710Z,100794.89
2019-02-11T05:38:09.848Z,100805.69
2019-02-11T05:39:14.870Z,100802.23
2019-02-11T05:40:19.546Z,100800.48
2019-02-11T05:41:24.722Z,100805.66
2019-02-11T05:42:29.966Z,100813.02
2019-02-11T05:43:34.915Z,100804.02
2019-02-11T05:44:40.352Z,100815.65
2019-02-11T05:45:45.236Z,100811.34
2019-02-11T05:46:50.202Z,100809.97
2019-02-11T05:47:55.448Z,100811.31
2019-02-11T05:49:00.518Z,100814.98
2019-02-11T05:50:05.884Z,100824.56
2019-02-11T05:51:10.851Z,100824.55
2019-02-11T05:52:15.808Z,100824.28
2019-02-11T05:53:21.015Z,100823.37
2019-02-11T05:54:26.270Z,100829.00
2019-02-11T05:55:31.400Z,100825.98
2019-02-11T05:56:36.325Z,100830.23
2019-02-11T05:57:41.346Z,100829.84
2019-02-11T05:58:46.806Z,100839.70
2019-02-11T05:59:52.050Z,100838.35
2019-02-11T06:00:57.549Z,100844.00
2019-02-11T06:02:02.781Z,100848.75
2019-02-11T06:03:09.564Z,100846.10
2019-02-11T06:04:15.229Z,100851.34
2019-02-11T06:05:20.751Z,100853.97
2019-02-11T06:06:25.691Z,100857.83
2019-02-11T06:07:30.568Z,100860.86
2019-02-11T06:08:35.707Z,100858.67
2019-02-11T06:09:40.958Z,100861.30
2019-02-11T06:10:45.908Z,100863.42
2019-02-11T06:11:50.763Z,100875.63
2019-02-11T06:12:55.636Z,100876.91
2019-02-11T06:14:01.191Z,100873.81
2019-02-11T06:15:06.445Z,100872.55
2019-02-11T06:16:11.675Z,100870.38
2019-02-11T06:17:16.543Z,100870.02
2019-02-11T06:18:21.392Z,100879.52
2019-02-11T06:19:26.564Z,100880.80
2019-02-11T06:20:31.512Z,100886.78
2019-02-11T06:21:36.461Z,100893.64
2019-02-11T06:22:44.698Z,100895.73
2019-02-11T06:23:49.971Z,100905.22
2019-02-11T06:24:54.582Z,100914.39
2019-02-11T06:25:59.818Z,100913.50
2019-02-11T06:27:04.793Z,100899.53
2019-02-11T06:28:09.950Z,100909.61
2019-02-11T06:29:15.183Z,100912.19
2019-02-11T06:30:19.759Z,100907.56
2019-02-11T06:31:25.043Z,100913.77
2019-02-11T06:32:29.621Z,100916.47
2019-02-11T06:33:34.592Z,100922.95
2019-02-11T06:34:40.351Z,100915.11
2019-02-11T06:35:45.798Z,100927.22
2019-02-11T06:36:50.777Z,100927.67
2019-02-11T06:37:56.246Z,100936.28
2019-02-11T06:39:01.427Z,100935.34
2019-02-11T06:40:07.451Z,100943.94
2019-02-11T06:41:12.324Z,100939.71
2019-02-11T06:42:17.567Z,100945.19
2019-02-11T06:43:22.236Z,100951.78
2019-02-11T06:44:27.384Z,100963.06
2019-02-11T06:45:32.963Z,100968.32
2019-02-11T06:46:37.599Z,100972.50
2019-02-11T06:47:44.082Z,100969.14
2019-02-11T06:48:49.243Z,100978.20
2019-02-11T06:49:54.459Z,100973.02
2019-02-11T06:50:59.955Z,100984.72
2019-02-11T06:52:04.648Z,100986.22
2019-02-11T06:53:09.848Z,100991.33
2019-02-11T06:54:14.436Z,100994.14
2019-02-11T06:55:19.757Z,100993.70
2019-02-11T06:56:24.721Z,100997.03
2019-02-11T06:57:29.658Z,101003.65
2019-02-11T06:58:35.141Z,101001.46
2019-02-11T06:59:40.265Z,101000.70
2019-02-11T07:00:45.387Z,100998.89
2019-02-11T07:01:50.457Z,101008.48
2019-02-11T07:02:55.189Z,101007.13
2019-02-11T07:04:00.339Z,101008.55
2019-02-11T07:05:04.948Z,101016.45
2019-02-11T07:06:10.188Z,101016.63
2019-02-11T07:07:15.401Z,101021.66
2019-02-11T07:08:20.374Z,101026.88
2019-02-11T07:09:25.205Z,101025.52
2019-02-11T07:10:30.720Z,101029.95
2019-02-11T07:11:35.637Z,101034.66
2019-02-11T07:12:40.411Z,101028.27
2019-02-11T07:13:45.291Z,101031.24
2019-02-11T07:14:50.197Z,101031.31
2019-02-11T07:15:55.737Z,101039.72
2019-02-11T07:17:00.952Z,101033.89
2019-02-11T07:18:05.615Z,101035.56
2019-02-11T07:19:11.138Z,101041.48
2019-02-11T07:20:15.566Z,101039.67
2019-02-11T07:21:21.050Z,101052.10
2019-02-11T07:22:25.993Z,101054.38
2019-02-11T07:23:31.509Z,101055.83
2019-02-11T07:24:36.743Z,101058.10
2019-02-11T07:25:45.020Z,101062.73
2019-02-11T07:26:50.732Z,101063.53
2019-02-11T07:27:55.964Z,101060.55
2019-02-11T07:29:01.131Z,101069.17
2019-02-11T07:30:06.335Z,101079.39
2019-02-11T07:31:11.271Z,101073.81
2019-02-11T07:32:16.637Z,101069.93
2019-02-11T07:33:21.760Z,101075.31
2019-02-11T07:34:27.287Z,101077.91
2019-02-11T07:35:32.328Z,101084.39
2019-02-11T07:36:37.996Z,101088.60
2019-02-11T07:37:43.289Z,101087.36
2019-02-11T07:38:48.183Z,101090.80
2019-02-11T07:39:53.145Z,101093.73
2019-02-11T07:40:58.326Z,101098.59
2019-02-11T07:42:28.212Z,101099.50
2019-02-11T07:43:41.617Z,101100.21
2019-02-11T07:44:51.156Z,101105.34
2019-02-11T07:46:03.170Z,101110.58
2019-02-11T07:47:08.274Z,101107.17
2019-02-11T07:48:13.427Z,101105.77
2019-02-11T07:49:18.365Z,101108.79
2019-02-11T07:50:23.600Z,101109.80
2019-02-11T07:51:29.087Z,101113.75
2019-02-11T07:52:34.019Z,101113.14
2019-02-11T07:53:38.970Z,101112.85
2019-02-11T07:54:43.901Z,101117.62
2019-02-11T07:55:48.832Z,101111.09
2019-02-11T07:56:54.051Z,101116.76
2019-02-11T07:57:59.091Z,101121.47
2019-02-11T07:59:03.765Z,101120.34
2019-02-11T08:00:08.830Z,101135.35
2019-02-11T08:01:14.350Z,101131.80
2019-02-11T08:02:19.616Z,101130.14
2019-02-11T08:03:24.651Z,101136.47
2019-02-11T08:04:29.921Z,101135.30
2019-02-11T08:05:34.598Z,101139.92
2019-02-11T08:06:39.734Z,101142.17
2019-02-11T08:07:44.841Z,101136.62
2019-02-11T08:08:50.369Z,101145.17
2019-02-11T08:09:55.799Z,101145.08
2019-02-11T08:11:01.252Z,101139.72
2019-02-11T08:12:06.109Z,101142.74
2019-02-11T08:13:11.073Z,101141.05
2019-02-11T08:14:15.832Z,101141.48
2019-02-11T08:15:20.730Z,101143.68
2019-02-11T08:16:25.241Z,101144.22
2019-02-11T08:17:30.114Z,101149.16
2019-02-11T08:18:34.667Z,101149.60
2019-02-11T08:19:39.916Z,101145.69
2019-02-11T08:20:45.191Z,101150.00
2019-02-11T08:21:50.612Z,101150.59
2019-02-11T08:22:56.092Z,101145.85
2019-02-11T08:24:01.071Z,101153.66
2019-02-11T08:25:05.806Z,101160.11
2019-02-11T08:26:11.002Z,101168.77
2019-02-11T08:27:16.227Z,101165.80
2019-02-11T08:28:21.215Z,101168.48
2019-02-11T08:29:26.200Z,101174.11
2019-02-11T08:30:30.971Z,101175.39
2019-02-11T08:31:35.876Z,101179.71
2019-02-11T08:32:41.081Z,101183.19
2019-02-11T08:33:45.758Z,101184.89
2019-02-11T08:34:50.713Z,101193.48
2019-02-11T08:35:55.392Z,101192.25
2019-02-11T08:37:00.945Z,101206.50
2019-02-11T08:38:06.140Z,101210.41
2019-02-11T08:39:11.727Z,101211.27
2019-02-11T08:40:16.695Z,101207.83
2019-02-11T08:41:21.637Z,101213.43
2019-02-11T08:42:26.500Z,101209.52
2019-02-11T08:43:31.383Z,101219.06
2019-02-11T08:44:36.620Z,101213.86
2019-02-11T08:45:46.773Z,101229.43
2019-02-11T08:46:48.355Z,101214.30
2019-02-11T08:47:53.494Z,101228.56
2019-02-11T08:48:58.378Z,101224.23
2019-02-11T08:50:03.391Z,101225.54
2019-02-11T08:51:08.371Z,101231.15
2019-02-11T08:52:13.318Z,101229.85
2019-02-11T08:53:18.839Z,101231.58
2019-02-11T08:54:24.098Z,101233.30
2019-02-11T08:55:28.973Z,101232.02
2019-02-11T08:56:33.629Z,101237.63
2019-02-11T08:57:38.872Z,101235.48
2019-02-11T08:58:44.117Z,101234.98
2019-02-11T08:59:48.998Z,101240.81
2019-02-11T09:00:54.132Z,101244.92
2019-02-11T09:01:59.390Z,101245.77
2019-02-11T09:03:04.079Z,101252.70
2019-02-11T09:04:09.595Z,101250.53
2019-02-11T09:05:14.483Z,101257.47
2019-02-11T09:06:19.712Z,101261.27
2019-02-11T09:07:24.956Z,101258.71
2019-02-11T09:08:29.901Z,101258.61
2019-02-11T09:09:35.147Z,101253.61
2019-02-11T09:10:40.538Z,101256.24
2019-02-11T09:11:45.232Z,101257.98
2019-02-11T09:12:50.099Z,101264.01
2019-02-11T09:13:54.946Z,101264.33
2019-02-11T09:14:59.927Z,101264.34
2019-02-11T09:16:04.459Z,101267.39
2019-02-11T09:17:10.584Z,101268.28
2019-02-11T09:18:15.640Z,101269.98
2019-02-11T09:19:20.903Z,101264.35
2019-02-11T09:20:25.849Z,101275.16
2019-02-11T09:21:31.072Z,101270.05
2019-02-11T09:22:36.294Z,101277.77
2019-02-11T09:23:41.845Z,101277.37
2019-02-11T09:24:46.849Z,101276.48
2019-02-11T09:25:52.085Z,101273.05
2019-02-11T09:26:57.298Z,101275.70
2019-02-11T09:28:02.291Z,101277.00
2019-02-11T09:29:07.004Z,101284.80
2019-02-11T09:30:13.658Z,101285.20
2019-02-11T09:31:18.802Z,101290.85
2019-02-11T09:32:23.929Z,101294.23
2019-02-11T09:33:29.148Z,101288.23
2019-02-11T09:34:34.173Z,101289.97
2019-02-11T09:35:39.261Z,101296.50
2019-02-11T09:36:44.268Z,101300.23
2019-02-11T09:37:49.783Z,101291.47
2019-02-11T09:38:54.942Z,101292.66
2019-02-11T09:40:00.343Z,101302.91
2019-02-11T09:41:05.278Z,101302.20
2019-02-11T09:42:09.971Z,101308.39
2019-02-11T09:43:15.194Z,101310.59
2019-02-11T09:44:20.570Z,101309.49
2019-02-11T09:45:25.657Z,101312.01
2019-02-11T09:46:30.635Z,101317.77
2019-02-11T09:47:35.509Z,101320.38
2019-02-11T09:48:40.485Z,101309.57
2019-02-11T09:49:46.899Z,101318.31
2019-02-11T09:50:53.492Z,101320.38
2019-02-11T09:51:58.499Z,101317.22
2019-02-11T09:53:03.694Z,101329.88
2019-02-11T09:54:09.667Z,101327.06
2019-02-11T09:55:17.692Z,101332.05
2019-02-11T09:56:22.932Z,101321.75
2019-02-11T09:57:27.631Z,101322.81
2019-02-11T09:58:32.608Z,101322.86
2019-02-11T09:59:37.602Z,101332.61
2019-02-11T10:00:42.645Z,101325.13
2019-02-11T10:01:47.588Z,101328.95
2019-02-11T10:02:52.814Z,101331.94
2019-02-11T10:03:57.652Z,101341.19
2019-02-11T10:05:02.730Z,101339.42
2019-02-11T10:06:07.926Z,101339.81
2019-02-11T10:07:13.137Z,101343.39
2019-02-11T10:08:17.559Z,101346.88
2019-02-11T10:09:22.145Z,101350.07
2019-02-11T10:10:27.381Z,101356.81
2019-02-11T10:11:32.591Z,101360.70
2019-02-11T10:12:38.101Z,101361.95
2019-02-11T10:13:43.375Z,101371.45
2019-02-11T10:14:48.306Z,101374.62
2019-02-11T10:15:53.526Z,101376.41
2019-02-11T10:16:58.515Z,101380.14
2019-02-11T10:18:04.021Z,101382.48
2019-02-11T10:19:08.972Z,101381.64
2019-02-11T10:20:13.658Z,101382.44
2019-02-11T10:21:18.894Z,101380.64
2019-02-11T10:22:23.798Z,101386.66
2019-02-11T10:23:29.309Z,101387.95
2019-02-11T10:24:34.179Z,101387.64
2019-02-11T10:25:39.437Z,101392.92
2019-02-11T10:26:44.638Z,101398.58
2019-02-11T10:27:49.881Z,101393.84
2019-02-11T10:28:55.095Z,101392.98
2019-02-11T10:30:00.294Z,101400.77
2019-02-11T10:31:05.509Z,101404.67
2019-02-11T10:32:10.001Z,101408.56
2019-02-11T10:33:14.968Z,101392.98
2019-02-11T10:34:19.893Z,101405.50
2019-02-11T10:35:24.585Z,101408.98
2019-02-11T10:36:29.557Z,101413.33
2019-02-11T10:37:34.786Z,101414.61
2019-02-11T10:38:40.058Z,101408.08
2019-02-11T10:39:45.255Z,101410.74
2019-02-11T10:40:50.200Z,101411.58
2019-02-11T10:41:55.130Z,101410.27
2019-02-11T10:43:00.082Z,101412.91
2019-02-11T10:44:05.021Z,101411.59
2019-02-11T10:45:11.712Z,101417.67
2019-02-11T10:46:20.949Z,101416.80
2019-02-11T10:47:23.665Z,101416.34
2019-02-11T10:48:28.339Z,101410.69
2019-02-11T10:49:33.845Z,101414.59
2019-02-11T10:50:40.507Z,101421.47
2019-02-11T10:51:45.151Z,101413.69
2019-02-11T10:52:49.823Z,101415.45
2019-02-11T10:53:55.030Z,101428.91
2019-02-11T10:55:00.549Z,101422.84
2019-02-11T10:56:05.800Z,101426.25
2019-02-11T10:57:11.020Z,101429.72
2019-02-11T10:58:16.279Z,101431.02
2019-02-11T10:59:20.556Z,101427.99
2019-02-11T11:00:25.538Z,101427.02
2019-02-11T11:01:30.506Z,101433.59
2019-02-11T11:02:35.197Z,101432.70
2019-02-11T11:03:39.952Z,101424.07
2019-02-11T11:04:45.181Z,101425.38
2019-02-11T11:05:50.130Z,101429.31
2019-02-11T11:06:55.371Z,101437.52
2019-02-11T11:08:00.383Z,101438.28
2019-02-11T11:09:08.258Z,101441.41
2019-02-11T11:10:16.029Z,101439.97
2019-02-11T11:11:21.117Z,101444.33
2019-02-11T11:12:26.671Z,101448.67
2019-02-11T11:13:32.421Z,101447.88
2019-02-11T11:14:37.689Z,101438.38
2019-02-11T11:15:43.079Z,101446.53
2019-02-11T11:16:49.131Z,101447.41
2019-02-11T11:17:54.103Z,101450.00
2019-02-11T11:18:58.529Z,101452.19
2019-02-11T11:20:03.247Z,101446.09
2019-02-11T11:21:09.935Z,101458.78
2019-02-11T11:22:15.278Z,101461.34
2019-02-11T11:23:20.796Z,101454.02
2019-02-11T11:24:25.562Z,101463.55
2019-02-11T11:25:31.100Z,101458.34
2019-02-11T11:26:36.319Z,101458.75
2019-02-11T11:27:41.335Z,101460.35
2019-02-11T11:28:45.996Z,101459.03
2019-02-11T11:29:50.937Z,101463.92
2019-02-11T11:30:55.806Z,101463.33
2019-02-11T11:32:00.454Z,101459.64
2019-02-11T11:33:05.897Z,101467.87
2019-02-11T11:34:11.500Z,101471.34
2019-02-11T11:35:17.027Z,101470.04
2019-02-11T11:36:22.167Z,101472.23
2019-02-11T11:37:27.382Z,101470.04
2019-02-11T11:38:32.120Z,101473.52
2019-02-11T11:39:37.349Z,101475.69
2019-02-11T11:40:42.328Z,101472.20
2019-02-11T11:41:47.290Z,101471.34
2019-02-11T11:42:52.715Z,101477.41
2019-02-11T11:43:57.377Z,101473.51
2019-02-11T11:45:02.320Z,101475.25
2019-02-11T11:46:07.907Z,101470.90
2019-02-11T11:47:12.904Z,101472.23
2019-02-11T11:48:18.143Z,101475.27
2019-02-11T11:49:23.418Z,101470.50
2019-02-11T11:50:28.349Z,101483.03
2019-02-11T11:51:33.024Z,101473.49
2019-02-11T11:52:38.990Z,101481.72
2019-02-11T11:53:44.339Z,101481.24
2019-02-11T11:54:49.318Z,101487.75
2019-02-11T11:55:54.572Z,101481.72
2019-02-11T11:56:59.585Z,101485.02
2019-02-11T11:58:04.871Z,101491.97
2019-02-11T11:59:09.845Z,101493.32
2019-02-11T12:00:22.897Z,101498.45
2019-02-11T12:01:27.959Z,101497.88
2019-02-11T12:02:33.183Z,101496.87
2019-02-11T12:03:37.904Z,101500.27
2019-02-11T12:04:43.608Z,101498.66
2019-02-11T12:05:48.317Z,101502.51
2019-02-11T12:06:53.240Z,101505.13
2019-02-11T12:07:58.224Z,101513.80
2019-02-11T12:09:05.306Z,101506.83
2019-02-11T12:10:10.120Z,101511.61
2019-02-11T12:11:14.838Z,101512.08
2019-02-11T12:12:19.871Z,101519.45
2019-02-11T12:13:24.924Z,101528.52
2019-02-11T12:14:29.840Z,101525.46
2019-02-11T12:15:34.636Z,101532.37
2019-02-11T12:16:55.489Z,101547.11
2019-02-11T12:17:46.363Z,101532.85
2019-02-11T12:18:51.684Z,101545.30
2019-02-11T12:19:56.692Z,101547.08
2019-02-11T12:21:01.950Z,101541.44
2019-02-11T12:22:06.630Z,101536.70
2019-02-11T12:23:11.422Z,101543.81
2019-02-11T12:24:16.647Z,101544.89
2019-02-11T12:25:21.356Z,101550.58